Time;durP1;ratioP1;P1;durP2;ratioP2;P2;SDS_P1;SDS_P2;PMS_P1;PMS_P2;Temp;Humidity;BMP_temperature;BMP_pressure;BME280_temperature;BME280_humidity;BME280_pressure;Samples;Min_cycle;Max_cycle;Signal;HPM_P1;HPM_P2
2022/03/27 00:00:00;;;;;;;33.45;14.43;;;;;;;8.88;100.00;96402.56;5012927;28;20026;-64
2022/03/27 00:02:25;;;;;;;25.58;13.27;;;;;;;8.85;100.00;96394.19;5013050;28;20025;-63
2022/03/27 00:04:54;;;;;;;30.67;14.60;;;;;;;8.83;100.00;96398.94;5012624;28;20034;-63
2022/03/27 00:07:19;;;;;;;27.10;13.80;;;;;;;8.88;100.00;96401.75;5012867;28;20022;-64
2022/03/27 00:09:44;;;;;;;25.65;15.05;;;;;;;8.91;100.00;96404.81;5012614;28;20072;-63
2022/03/27 00:12:13;;;;;;;28.90;14.10;;;;;;;8.98;100.00;96394.84;5012784;28;20057;-64
2022/03/27 00:14:38;;;;;;;29.30;13.50;;;;;;;8.95;100.00;96400.66;5012359;28;20017;-64
2022/03/27 00:17:04;;;;;;;31.23;14.73;;;;;;;8.94;99.75;96393.69;5012500;28;20022;-63
2022/03/27 00:19:29;;;;;;;24.63;13.80;;;;;;;8.89;100.00;96392.69;5012436;28;20112;-64
2022/03/27 00:21:55;;;;;;;27.42;13.65;;;;;;;8.80;100.00;96394.88;5011174;28;20068;-63
2022/03/27 00:24:20;;;;;;;27.42;14.35;;;;;;;8.83;100.00;96385.59;5011265;28;20030;-63
2022/03/27 00:26:45;;;;;;;27.98;14.02;;;;;;;8.69;100.00;96382.25;5012405;28;20484;-64
2022/03/27 00:29:11;;;;;;;25.45;13.88;;;;;;;8.52;100.00;96387.31;5012393;28;20025;-63
2022/03/27 00:31:38;;;;;;;30.90;14.60;;;;;;;8.41;100.00;96374.69;5011269;28;20025;-63
2022/03/27 00:34:07;;;;;;;28.02;14.38;;;;;;;8.46;100.00;96384.69;5010971;28;20476;-63
2022/03/27 00:36:32;;;;;;;29.67;14.43;;;;;;;8.33;100.00;96375.75;5012480;28;20037;-61
2022/03/27 00:38:58;;;;;;;28.88;14.23;;;;;;;8.32;100.00;96386.66;5012308;28;20178;-64
2022/03/27 00:41:24;;;;;;;31.02;13.95;;;;;;;8.33;100.00;96377.59;5011846;28;20034;-64
2022/03/27 00:43:57;;;;;;;28.95;14.20;;;;;;;8.34;100.00;96387.25;5015811;28;20472;-64
2022/03/27 00:46:28;;;;;;;30.58;15.07;;;;;;;8.28;100.00;96383.59;5014637;28;20399;-64
2022/03/27 00:48:57;;;;;;;27.45;13.88;;;;;;;8.19;100.00;96378.75;5014422;28;20070;-64
2022/03/27 00:51:23;;;;;;;32.95;15.25;;;;;;;8.13;100.00;96375.09;5015650;28;20032;-63
2022/03/27 00:53:48;;;;;;;26.63;14.38;;;;;;;8.10;100.00;96376.34;5015037;28;20045;-64
2022/03/27 00:56:14;;;;;;;29.17;14.43;;;;;;;8.23;100.00;96379.94;5014154;28;20096;-63
2022/03/27 00:58:39;;;;;;;28.73;14.10;;;;;;;8.24;100.00;96387.72;4998499;28;20030;-63
2022/03/27 01:01:15;;;;;;;29.05;14.73;;;;;;;8.22;100.00;96379.13;4994785;28;20037;-64
2022/03/27 01:03:42;;;;;;;29.63;14.30;;;;;;;8.18;100.00;96391.28;4994824;28;20038;-63
2022/03/27 01:06:23;;;;;;;28.98;14.25;;;;;;;8.21;100.00;96382.00;4994564;28;20052;-63
2022/03/27 01:11:36;;;;;;;30.90;14.25;;;;;;;8.33;100.00;96383.75;5015300;28;20503;-63
2022/03/27 01:14:04;;;;;;;28.27;13.77;;;;;;;8.36;100.00;96379.88;5015051;28;20034;-63
2022/03/27 01:16:40;;;;;;;30.38;14.07;;;;;;;8.35;100.00;96368.34;5013590;28;20022;-63
2022/03/27 01:19:08;;;;;;;31.00;14.63;;;;;;;8.35;100.00;96365.69;5015181;28;20056;-64
2022/03/27 01:21:40;;;;;;;29.67;14.23;;;;;;;8.33;100.00;96369.59;5015170;28;20104;-63
2022/03/27 01:24:06;;;;;;;32.60;13.77;;;;;;;8.31;100.00;96363.66;5013791;28;20060;-63
2022/03/27 01:26:33;;;;;;;31.10;15.15;;;;;;;8.24;100.00;96361.03;5001776;28;20053;-63
2022/03/27 01:28:59;;;;;;;28.02;14.20;;;;;;;8.24;100.00;96354.88;5013964;28;20084;-64
2022/03/27 01:31:24;;;;;;;27.48;14.13;;;;;;;8.22;100.00;96357.78;4995513;28;20030;-64
2022/03/27 01:33:53;;;;;;;31.00;14.82;;;;;;;8.19;100.00;96363.56;4995130;28;20089;-64
2022/03/27 01:36:34;;;;;;;26.05;13.82;;;;;;;8.10;100.00;96349.66;5002073;28;20025;-63
2022/03/27 01:39:05;;;;;;;29.00;14.13;;;;;;;7.99;100.00;96350.38;5014619;28;20038;-63
2022/03/27 01:41:31;;;;;;;32.45;14.18;;;;;;;7.91;100.00;96358.63;5013471;28;20447;-64
2022/03/27 01:43:56;;;;;;;29.88;14.35;;;;;;;7.83;100.00;96362.41;5013183;28;20026;-64
2022/03/27 01:46:22;;;;;;;27.95;14.90;;;;;;;7.73;100.00;96362.06;5013435;28;20025;-63
2022/03/27 01:48:47;;;;;;;32.78;14.65;;;;;;;7.65;100.00;96359.66;5013322;28;20128;-63
2022/03/27 01:51:16;;;;;;;29.25;14.02;;;;;;;7.59;100.00;96360.50;5014557;28;20484;-63
2022/03/27 01:53:47;;;;;;;26.90;13.75;;;;;;;7.42;100.00;96357.53;5013486;28;20051;-63
2022/03/27 01:56:19;;;;;;;29.75;13.75;;;;;;;7.35;100.00;96359.41;5012891;28;20022;-64
2022/03/27 01:58:44;;;;;;;32.50;15.00;;;;;;;7.37;100.00;96359.19;4996607;28;20095;-63
2022/03/27 02:01:13;;;;;;;28.17;14.63;;;;;;;7.34;100.00;96355.09;4994785;28;20026;-64
2022/03/27 02:03:42;;;;;;;29.85;14.73;;;;;;;7.26;100.00;96350.84;4993327;28;20030;-64
2022/03/27 02:06:07;;;;;;;30.60;14.07;;;;;;;7.06;100.00;96351.97;4994709;28;20100;-64
2022/03/27 02:08:35;;;;;;;26.63;14.32;;;;;;;6.88;100.00;96353.47;4994556;28;20517;-63
2022/03/27 02:11:04;;;;;;;24.42;13.70;;;;;;;6.64;100.00;96349.66;4994598;28;20524;-64
2022/03/27 02:13:36;;;;;;;29.80;13.82;;;;;;;6.41;100.00;96343.16;4994305;28;20041;-63
2022/03/27 02:16:03;;;;;;;27.98;14.23;;;;;;;6.17;100.00;96340.09;4994681;28;20381;-63
2022/03/27 02:18:32;;;;;;;29.52;14.45;;;;;;;5.94;100.00;96329.88;5001076;28;20018;-64
2022/03/27 02:21:00;;;;;;;28.10;13.43;;;;;;;5.74;100.00;96323.72;5012588;28;20026;-63
2022/03/27 02:23:26;;;;;;;27.25;13.85;;;;;;;5.59;100.00;96331.09;5013712;28;20032;-63
2022/03/27 02:25:57;;;;;;;27.13;14.50;;;;;;;5.41;100.00;96323.69;5013910;28;20089;-63
2022/03/27 02:28:23;;;;;;;30.00;15.07;;;;;;;5.22;100.00;96315.50;5013843;28;20092;-64
2022/03/27 02:30:52;;;;;;;27.52;13.07;;;;;;;5.00;100.00;96308.69;5013769;28;20069;-63
2022/03/27 02:33:18;;;;;;;26.20;13.45;;;;;;;4.84;100.00;96299.25;5013708;28;20034;-63
2022/03/27 02:35:44;;;;;;;30.42;15.02;;;;;;;4.69;100.00;96295.94;5012396;28;20026;-63
2022/03/27 02:38:12;;;;;;;25.38;13.57;;;;;;;4.53;100.00;96278.50;5012307;28;20037;-63
2022/03/27 02:40:39;;;;;;;27.92;13.55;;;;;;;4.44;100.00;96274.38;5013645;28;20022;-63
2022/03/27 02:43:05;;;;;;;29.05;14.07;;;;;;;4.34;100.00;96268.59;5013711;28;20053;-63
2022/03/27 02:45:32;;;;;;;30.20;14.38;;;;;;;4.62;100.00;96256.09;5012358;28;20026;-63
2022/03/27 02:48:00;;;;;;;28.58;13.98;;;;;;;5.09;100.00;96256.19;5013728;28;20101;-63
2022/03/27 02:50:28;;;;;;;29.95;14.38;;;;;;;5.24;100.00;96265.63;5013654;28;20057;-62
2022/03/27 02:53:06;;;;;;;30.27;15.43;;;;;;;5.28;100.00;96273.19;5013819;28;20032;-63
2022/03/27 02:55:31;;;;;;;32.25;13.68;;;;;;;5.20;100.00;96268.88;5014356;28;20026;-63
2022/03/27 02:58:01;;;;;;;28.30;13.77;;;;;;;5.08;100.00;96268.66;5001495;28;20085;-63
2022/03/27 03:00:30;;;;;;;28.52;13.43;;;;;;;5.04;100.00;96256.00;4993338;28;20061;-63
2022/03/27 03:02:56;;;;;;;30.40;13.07;;;;;;;5.07;100.00;96259.06;4992997;28;20026;-63
2022/03/27 03:05:24;;;;;;;33.30;14.93;;;;;;;5.29;100.00;96256.22;4992648;28;20556;-63
2022/03/27 03:08:01;;;;;;;28.30;13.60;;;;;;;5.52;100.00;96264.63;4994562;28;20034;-63
2022/03/27 03:10:27;;;;;;;28.70;13.82;;;;;;;5.63;100.00;96274.66;5001802;28;20026;-63
2022/03/27 03:12:58;;;;;;;29.05;14.40;;;;;;;5.69;100.00;96276.50;5014100;28;20440;-63
2022/03/27 03:15:26;;;;;;;29.25;12.95;;;;;;;5.69;100.00;96281.81;4994958;28;20393;-63
2022/03/27 03:17:57;;;;;;;27.70;14.07;;;;;;;5.71;100.00;96276.28;4994518;28;20112;-63
2022/03/27 03:20:24;;;;;;;26.63;13.40;;;;;;;5.70;100.00;96278.13;4995119;28;20479;-63
2022/03/27 03:22:50;;;;;;;29.30;13.88;;;;;;;5.65;100.00;96280.59;4994903;28;20088;-63
2022/03/27 03:25:15;;;;;;;26.05;13.63;;;;;;;5.67;100.00;96278.53;4995107;28;20101;-63
2022/03/27 03:27:40;;;;;;;29.05;13.50;;;;;;;5.72;100.00;96288.56;4994998;28;20026;-63
2022/03/27 03:30:07;;;;;;;28.13;13.55;;;;;;;5.74;100.00;96276.69;4994816;28;20018;-63
2022/03/27 03:32:34;;;;;;;30.80;14.35;;;;;;;5.81;100.00;96293.47;4993556;28;20092;-63
2022/03/27 03:35:00;;;;;;;26.98;13.13;;;;;;;5.77;100.00;96292.25;4994954;28;20022;-61
2022/03/27 03:37:28;;;;;;;29.98;14.77;;;;;;;5.76;100.00;96293.28;4993684;28;20026;-63
2022/03/27 03:39:59;;;;;;;30.05;13.48;;;;;;;5.76;100.00;96298.59;4994988;28;20023;-63
2022/03/27 03:42:25;;;;;;;31.40;14.45;;;;;;;5.73;100.00;96293.66;4994462;28;20031;-63
2022/03/27 03:44:51;;;;;;;28.02;14.07;;;;;;;5.68;100.00;96300.63;4994519;28;20080;-63
2022/03/27 03:47:19;;;;;;;30.60;13.88;;;;;;;5.64;100.00;96292.22;4994267;28;20030;-62
2022/03/27 03:49:47;;;;;;;28.55;13.73;;;;;;;5.50;100.00;96293.25;4994491;28;20026;-63
2022/03/27 03:52:18;;;;;;;28.98;14.63;;;;;;;5.37;100.00;96291.41;4994069;28;20026;-63
2022/03/27 03:54:46;;;;;;;30.98;14.73;;;;;;;5.22;100.00;96288.13;4997217;28;20104;-63
2022/03/27 03:57:11;;;;;;;29.55;14.02;;;;;;;5.10;100.00;96293.22;5008545;28;20100;-63
2022/03/27 03:59:39;;;;;;;30.60;14.18;;;;;;;5.08;100.00;96287.25;4994592;28;20057;-63
2022/03/27 04:02:18;;;;;;;32.72;14.05;;;;;;;5.02;100.00;96279.28;4995032;28;20027;-63
2022/03/27 04:04:47;;;;;;;32.15;13.00;;;;;;;4.94;100.00;96288.25;4995105;28;20030;-63
2022/03/27 04:07:12;;;;;;;25.63;12.48;;;;;;;4.83;100.00;96291.47;4994751;28;20022;-63
2022/03/27 04:09:38;;;;;;;28.52;14.18;;;;;;;4.70;100.00;96288.78;4994627;28;20097;-63
2022/03/27 04:12:03;;;;;;;32.58;15.10;;;;;;;4.69;100.00;96287.97;4994763;28;20033;-63
2022/03/27 04:14:36;;;;;;;30.90;15.02;;;;;;;4.63;100.00;96288.75;4995083;28;20026;-63
2022/03/27 04:17:07;;;;;;;29.42;13.43;;;;;;;4.45;100.00;96285.78;4996347;28;20034;-63
2022/03/27 04:19:42;;;;;;;27.98;14.35;;;;;;;4.25;100.00;96285.72;4997442;28;20074;-63
2022/03/27 04:22:07;;;;;;;28.48;13.45;;;;;;;4.26;100.00;96277.56;4998877;28;20054;-63
2022/03/27 04:24:33;;;;;;;32.42;13.60;;;;;;;4.47;100.00;96279.31;4998260;28;20100;-63
2022/03/27 04:27:01;;;;;;;31.27;13.52;;;;;;;4.60;100.00;96289.97;4999446;28;20487;-63
2022/03/27 04:29:29;;;;;;;30.17;12.93;;;;;;;4.53;100.00;96289.09;4999779;28;20019;-63
2022/03/27 04:31:56;;;;;;;25.98;13.95;;;;;;;4.29;100.00;96281.66;4999401;28;20088;-63
2022/03/27 04:34:22;;;;;;;30.25;13.15;;;;;;;4.03;100.00;96277.03;4998986;28;20028;-63
2022/03/27 04:36:50;;;;;;;29.02;12.80;;;;;;;3.70;100.00;96285.56;4999509;28;20082;-63
2022/03/27 04:39:20;;;;;;;27.02;12.95;;;;;;;3.49;100.00;96281.13;4998947;28;20077;-63
2022/03/27 04:41:48;;;;;;;23.77;12.35;;;;;;;3.55;100.00;96273.41;4998624;28;20034;-63
2022/03/27 04:44:14;;;;;;;31.67;13.15;;;;;;;3.46;100.00;96268.22;4999184;28;20433;-63
2022/03/27 04:46:39;;;;;;;26.90;13.77;;;;;;;3.20;100.00;96263.53;4999814;28;20030;-63
2022/03/27 04:49:05;;;;;;;25.65;12.52;;;;;;;2.90;100.00;96259.38;4999985;28;20022;-61
2022/03/27 04:51:33;;;;;;;26.88;12.18;;;;;;;2.69;100.00;96257.53;5000484;28;20049;-63
2022/03/27 04:54:02;;;;;;;31.60;12.88;;;;;;;2.51;100.00;96244.72;4999742;28;20128;-63
2022/03/27 04:56:27;;;;;;;27.17;12.70;;;;;;;2.35;100.00;96234.34;5015875;28;20068;-63
2022/03/27 04:58:53;;;;;;;25.35;12.70;;;;;;;2.12;100.00;96229.19;5002834;28;20136;-63
2022/03/27 05:01:27;;;;;;;23.63;12.32;;;;;;;1.89;100.00;96202.88;5017421;28;20030;-63
2022/03/27 05:03:52;;;;;;;23.83;12.20;;;;;;;1.81;100.00;96191.56;5014985;28;20018;-63
2022/03/27 05:06:18;;;;;;;23.63;12.73;;;;;;;1.84;100.00;96189.38;4997594;28;20095;-63
2022/03/27 05:08:44;;;;;;;26.27;13.45;;;;;;;1.89;100.00;96189.66;4996793;28;20077;-63
2022/03/27 05:11:12;;;;;;;23.95;12.05;;;;;;;2.12;100.00;96180.78;4997867;28;20026;-63
2022/03/27 05:13:44;;;;;;;32.63;14.35;;;;;;;2.25;100.00;96175.66;4997915;28;20049;-63
2022/03/27 05:16:12;;;;;;;26.38;13.15;;;;;;;2.62;100.00;96182.59;5004184;28;20022;-63
2022/03/27 05:18:40;;;;;;;26.95;12.95;;;;;;;2.99;100.00;96196.56;4999756;28;20031;-63
2022/03/27 05:21:06;;;;;;;35.45;13.38;;;;;;;3.02;100.00;96207.56;4998339;28;20076;-63
2022/03/27 05:23:34;;;;;;;26.73;12.50;;;;;;;2.90;100.00;96204.63;4997848;28;20031;-63
2022/03/27 05:26:06;;;;;;;25.55;12.93;;;;;;;2.84;100.00;96218.63;4997956;28;20038;-63
2022/03/27 05:28:32;;;;;;;26.35;12.90;;;;;;;2.71;100.00;96215.00;4995871;28;20113;-63
2022/03/27 05:30:57;;;;;;;25.90;12.43;;;;;;;2.54;100.00;96214.44;4997683;28;20473;-63
2022/03/27 05:33:23;;;;;;;30.40;12.68;;;;;;;2.37;100.00;96211.19;5000136;28;20057;-63
2022/03/27 05:35:53;;;;;;;25.55;12.02;;;;;;;2.23;100.00;96198.81;4998314;28;20436;-63
2022/03/27 05:38:21;;;;;;;24.17;12.10;;;;;;;2.09;100.00;96191.75;4996159;28;20037;-63
2022/03/27 05:40:53;;;;;;;27.08;13.38;;;;;;;1.94;100.00;96183.81;4996991;28;20061;-62
2022/03/27 05:43:22;;;;;;;29.10;12.63;;;;;;;1.82;100.00;96170.25;5003565;28;20408;-61
2022/03/27 05:45:47;;;;;;;28.38;13.43;;;;;;;1.73;100.00;96160.78;5016071;28;20408;-62
2022/03/27 05:48:14;;;;;;;25.60;12.55;;;;;;;1.66;100.00;96144.88;5017085;28;20022;-62
2022/03/27 05:50:39;;;;;;;26.02;12.52;;;;;;;1.66;100.00;96136.13;5016953;28;20026;-61
2022/03/27 05:53:05;;;;;;;23.00;11.70;;;;;;;1.67;100.00;96124.56;5025957;23;20033;-57
2022/03/27 05:55:30;;;;;;;25.33;12.82;;;;;;;1.70;100.00;96111.81;5018195;28;20485;-53
2022/03/27 05:57:55;;;;;;;29.98;13.00;;;;;;;1.87;100.00;96104.50;5013286;28;20026;-54
2022/03/27 06:00:26;;;;;;;24.98;12.52;;;;;;;2.11;100.00;96095.41;4993631;28;20089;-53
2022/03/27 06:02:52;;;;;;;34.08;12.77;;;;;;;2.31;100.00;96092.97;4995799;28;20030;-52
2022/03/27 06:05:24;;;;;;;27.88;12.98;;;;;;;2.56;100.00;96088.94;4997121;28;20030;-54
2022/03/27 06:07:54;;;;;;;25.23;12.45;;;;;;;2.76;100.00;96094.38;4996731;28;20109;-54
2022/03/27 06:10:22;;;;;;;24.75;12.88;;;;;;;2.88;100.00;96100.78;5002411;28;20038;-53
2022/03/27 06:12:48;;;;;;;27.90;12.95;;;;;;;3.03;100.00;96107.81;5014173;28;20034;-55
2022/03/27 06:15:20;;;;;;;26.15;12.60;;;;;;;3.14;100.00;96113.38;5014057;28;20026;-57
2022/03/27 06:17:48;;;;;;;29.45;13.40;;;;;;;3.22;100.00;96122.22;5014023;28;20384;-58
2022/03/27 06:20:16;;;;;;;25.15;12.43;;;;;;;3.22;100.00;96120.38;5013860;28;20026;-53
2022/03/27 06:22:44;;;;;;;26.80;12.35;;;;;;;3.23;100.00;96140.53;5013947;28;20033;-53
2022/03/27 06:25:19;;;;;;;28.52;12.90;;;;;;;3.25;100.00;96150.94;5013782;28;20026;-54
2022/03/27 06:27:45;;;;;;;31.13;13.48;;;;;;;3.31;100.00;96148.34;4996415;28;20029;-54
2022/03/27 06:30:15;;;;;;;26.23;12.25;;;;;;;3.41;100.00;96145.34;4984246;28;20034;-59
2022/03/27 06:32:44;;;;;;;26.15;11.70;;;;;;;3.47;100.00;96144.56;5008612;28;20025;-57
2022/03/27 06:35:11;;;;;;;23.67;11.98;;;;;;;3.61;100.00;96156.09;5013754;28;20114;-53
2022/03/27 06:37:38;;;;;;;30.65;13.13;;;;;;;3.88;100.00;96155.19;5012246;28;20037;-50
2022/03/27 06:40:05;;;;;;;26.00;12.25;;;;;;;4.34;100.00;96162.50;4993803;28;20042;-51
2022/03/27 06:42:32;;;;;;;34.40;13.38;;;;;;;4.88;100.00;96164.25;5009355;28;20534;-50
2022/03/27 06:44:58;;;;;;;24.40;12.52;;;;;;;5.62;100.00;96185.31;5013356;28;20493;-55
2022/03/27 06:47:26;;;;;;;25.20;12.43;;;;;;;6.31;100.00;96210.56;5015647;28;20034;-54
2022/03/27 06:49:52;;;;;;;29.67;13.20;;;;;;;7.04;100.00;96252.78;5015882;28;20473;-52
2022/03/27 06:52:18;;;;;;;25.52;12.30;;;;;;;7.64;100.00;96302.00;5004946;28;20396;-53
2022/03/27 06:54:47;;;;;;;25.65;12.68;;;;;;;8.21;100.00;96341.97;4999502;28;20048;-55
2022/03/27 06:57:24;;;;;;;24.35;11.88;;;;;;;8.62;100.00;96355.59;4993659;28;20066;-50
2022/03/27 07:05:20;;;;;;;29.83;11.90;;;;;;;9.41;100.00;96406.50;4988374;28;20142;-55
2022/03/27 07:07:46;;;;;;;27.65;12.57;;;;;;;9.67;100.00;96413.38;4973850;28;20018;-54
2022/03/27 07:10:13;;;;;;;26.20;13.38;;;;;;;9.90;100.00;96416.13;4985497;28;20038;-53
2022/03/27 07:12:43;;;;;;;28.27;13.63;;;;;;;10.15;100.00;96416.78;4983384;28;20085;-53
2022/03/27 07:15:09;;;;;;;29.88;12.95;;;;;;;10.48;98.95;96436.09;4958247;28;20046;-52
2022/03/27 07:17:53;;;;;;;28.95;12.68;;;;;;;10.66;95.99;96439.50;4985718;28;20030;-52
2022/03/27 07:20:30;;;;;;;25.63;12.88;;;;;;;10.84;93.71;96453.81;4983449;28;20046;-52
2022/03/27 07:22:58;;;;;;;25.35;13.18;;;;;;;10.87;92.22;96456.88;4986411;28;20031;-58
2022/03/27 07:25:25;;;;;;;28.30;12.70;;;;;;;11.15;92.61;96466.06;4975670;28;20023;-55
2022/03/27 07:27:54;;;;;;;28.05;13.35;;;;;;;11.41;90.78;96470.13;4988914;28;20030;-54
2022/03/27 07:30:20;;;;;;;27.17;13.25;;;;;;;11.51;87.93;96481.88;4992978;28;20433;-54
2022/03/27 07:32:46;;;;;;;26.40;13.95;;;;;;;11.79;87.01;96482.97;4988650;28;20022;-50
2022/03/27 07:35:15;;;;;;;26.75;13.27;;;;;;;12.08;87.08;96486.53;4976967;28;20029;-53
2022/03/27 07:37:42;;;;;;;26.92;13.27;;;;;;;12.40;85.33;96492.22;4974841;28;20232;-50
2022/03/27 07:40:08;;;;;;;28.98;13.23;;;;;;;12.60;83.70;96499.84;4988155;28;20117;-55
2022/03/27 07:42:38;;;;;;;27.35;14.18;;;;;;;12.61;81.34;96499.59;4983457;28;20486;-54
2022/03/27 07:45:05;;;;;;;30.40;14.35;;;;;;;12.62;81.00;96495.84;4985223;28;20068;-53
2022/03/27 07:47:31;;;;;;;28.30;14.75;;;;;;;12.75;79.78;96508.97;4975290;28;20030;-55
2022/03/27 07:49:57;;;;;;;29.05;13.65;;;;;;;12.64;80.87;96500.97;4987902;28;20026;-57
2022/03/27 07:52:27;;;;;;;29.50;14.90;;;;;;;12.90;80.45;96512.94;4992467;28;20045;-56
2022/03/27 07:54:55;;;;;;;28.73;13.93;;;;;;;13.11;79.21;96514.09;4990546;28;20046;-53
2022/03/27 07:57:21;;;;;;;27.83;14.15;;;;;;;13.27;78.77;96513.31;4991509;28;20416;-54
2022/03/27 07:59:47;;;;;;;28.92;14.75;;;;;;;13.46;77.75;96517.38;4991786;28;20109;-52
2022/03/27 08:02:14;;;;;;;27.60;14.90;;;;;;;13.46;75.32;96514.66;4992806;28;20081;-53
2022/03/27 08:04:39;;;;;;;29.52;14.68;;;;;;;13.71;75.26;96522.28;4991230;28;20058;-56
2022/03/27 08:07:04;;;;;;;34.47;16.02;;;;;;;13.80;74.13;96518.09;4992575;28;20520;-56
2022/03/27 08:09:30;;;;;;;29.30;14.80;;;;;;;13.89;74.35;96516.59;4992859;28;20469;-57
2022/03/27 08:12:02;;;;;;;26.73;14.52;;;;;;;14.24;73.46;96523.47;4992786;28;20125;-52
2022/03/27 08:14:31;;;;;;;25.73;14.90;;;;;;;14.49;72.51;96523.75;4991511;28;20034;-55
2022/03/27 08:16:59;;;;;;;31.33;15.43;;;;;;;14.78;70.81;96523.50;4992683;28;20030;-51
2022/03/27 08:19:28;;;;;;;29.13;14.32;;;;;;;14.97;71.04;96516.63;4992546;28;20085;-53
2022/03/27 08:21:53;;;;;;;29.23;15.10;;;;;;;15.11;68.44;96525.13;4991250;28;20089;-52
2022/03/27 08:24:21;;;;;;;29.05;14.43;;;;;;;15.05;69.61;96526.13;4991201;28;20033;-52
2022/03/27 08:26:55;;;;;;;29.42;15.32;;;;;;;15.10;71.03;96526.19;4992743;28;20026;-56
2022/03/27 08:29:32;;;;;;;33.85;15.70;;;;;;;15.38;68.95;96520.44;4992528;28;20030;-50
2022/03/27 08:32:05;;;;;;;27.60;15.20;;;;;;;15.58;67.62;96527.88;4976603;28;20019;-53
2022/03/27 08:34:33;;;;;;;30.95;15.65;;;;;;;15.81;66.69;96529.38;4992438;28;20026;-53
2022/03/27 08:37:01;;;;;;;30.67;15.82;;;;;;;16.00;64.73;96520.81;4992688;28;20034;-52
2022/03/27 08:39:30;;;;;;;26.48;14.65;;;;;;;15.88;64.23;96523.75;4991227;28;20018;-52
2022/03/27 08:41:56;;;;;;;25.25;14.75;;;;;;;15.75;64.37;96524.22;4992500;28;20453;-54
2022/03/27 08:44:24;;;;;;;26.10;14.57;;;;;;;15.94;66.02;96522.66;4992412;28;20389;-55
2022/03/27 08:46:51;;;;;;;24.35;14.90;;;;;;;16.12;64.48;96519.50;4991096;28;20030;-55
2022/03/27 08:49:25;;;;;;;26.85;15.45;;;;;;;16.32;63.77;96526.88;4992450;28;20061;-54
2022/03/27 08:52:17;;;;;;;26.23;15.18;;;;;;;15.99;63.34;96521.91;4992449;28;20507;-53
2022/03/27 08:54:59;;;;;;;26.90;15.60;;;;;;;15.82;64.87;96520.19;5001652;28;20053;-50
2022/03/27 08:57:56;;;;;;;25.90;16.38;;;;;;;15.99;66.09;96524.59;5011824;28;20026;-52
2022/03/27 09:00:29;;;;;;;28.80;15.98;;;;;;;16.18;64.60;96529.28;4952384;28;20044;-54
2022/03/27 09:02:56;;;;;;;27.02;15.75;;;;;;;16.35;64.04;96528.25;4994739;28;20428;-53
2022/03/27 09:05:24;;;;;;;30.50;16.33;;;;;;;16.60;65.14;96528.28;4998529;28;20041;-55
2022/03/27 09:07:50;;;;;;;28.20;15.95;;;;;;;16.66;65.13;96523.72;5015351;28;20105;-55
2022/03/27 09:10:17;;;;;;;31.75;16.35;;;;;;;16.61;64.00;96521.81;5015678;28;20543;-58
2022/03/27 09:12:44;;;;;;;28.80;16.40;;;;;;;16.62;62.87;96528.88;4997820;28;20108;-52
2022/03/27 09:15:11;;;;;;;26.85;15.65;;;;;;;16.86;62.68;96522.97;4997570;28;20038;-54
2022/03/27 09:17:57;;;;;;;28.15;16.45;;;;;;;17.13;61.10;96526.22;4981563;28;20029;-53
2022/03/27 09:20:51;;;;;;;28.75;16.83;;;;;;;17.49;60.98;96534.34;5022567;28;20030;-56
2022/03/27 09:23:20;;;;;;;28.83;16.08;;;;;;;17.70;61.85;96532.44;4994144;28;20116;-54
2022/03/27 09:26:04;;;;;;;30.13;16.38;;;;;;;17.87;60.28;96528.31;5005864;28;20354;-54
2022/03/27 09:28:35;;;;;;;29.15;15.88;;;;;;;17.98;58.28;96522.84;4997311;28;20046;-55
2022/03/27 09:31:25;;;;;;;27.95;15.63;;;;;;;18.00;57.18;96531.50;4997335;28;20037;-57
2022/03/27 09:33:56;;;;;;;28.95;17.10;;;;;;;17.98;56.66;96529.09;5005054;28;20026;-57
2022/03/27 09:36:29;;;;;;;32.50;17.55;;;;;;;17.94;60.81;96522.59;4997135;28;20157;-56
2022/03/27 09:39:00;;;;;;;;;;;;;;;17.97;60.14;96527.47;5015075;28;20057;-57
2022/03/27 09:41:52;;;;;;;30.02;15.35;;;;;;;18.05;59.08;96535.03;5014720;28;19909;-53
2022/03/27 09:44:29;;;;;;;34.35;16.77;;;;;;;18.13;58.19;96530.94;4996933;28;20480;-60
2022/03/27 09:47:00;;;;;;;27.35;15.88;;;;;;;18.13;57.85;96522.81;5025085;28;20040;-55
2022/03/27 09:49:32;;;;;;;28.92;16.17;;;;;;;18.41;58.17;96527.53;4999537;28;20023;-56
2022/03/27 09:52:18;;;;;;;28.07;16.73;;;;;;;18.47;56.94;96520.19;4993898;28;20030;-57
2022/03/27 09:54:50;;;;;;;28.98;16.85;;;;;;;18.69;56.91;96523.34;5003065;28;20339;-58
2022/03/27 09:57:29;;;;;;;26.45;16.35;;;;;;;18.61;56.75;96523.09;4996852;28;20030;-60
2022/03/27 09:59:57;;;;;;;25.10;15.02;;;;;;;18.71;56.30;96517.63;4996858;28;20481;-57
2022/03/27 10:02:30;;;;;;;26.77;15.65;;;;;;;18.79;56.46;96508.91;5014381;28;20064;-56
2022/03/27 10:04:57;;;;;;;29.02;17.27;;;;;;;19.01;54.35;96519.34;4996852;28;20022;-55
2022/03/27 10:07:25;;;;;;;26.05;16.60;;;;;;;19.20;54.88;96517.53;5021945;28;20030;-55
2022/03/27 10:09:55;;;;;;;26.45;16.85;;;;;;;19.30;54.04;96519.34;4994834;28;20057;-56
2022/03/27 10:12:28;;;;;;;29.38;17.35;;;;;;;19.42;52.55;96514.34;4993376;28;20029;-54
2022/03/27 10:15:05;;;;;;;26.27;15.48;;;;;;;19.70;53.72;96518.19;4994111;28;20030;-60
2022/03/27 10:17:35;;;;;;;29.52;16.80;;;;;;;19.38;50.86;96513.31;5022936;28;20048;-59
2022/03/27 10:20:14;;;;;;;24.70;14.95;;;;;;;19.38;52.85;96510.59;5001697;28;20057;-57
2022/03/27 10:22:45;;;;;;;26.63;15.20;;;;;;;19.80;52.00;96506.41;5016989;28;20029;-57
2022/03/27 10:25:13;;;;;;;24.70;15.68;;;;;;;20.13;50.49;96521.78;5013912;28;20492;-54
2022/03/27 10:27:43;;;;;;;26.25;16.42;;;;;;;20.34;49.75;96502.50;5013944;28;20026;-57
2022/03/27 10:30:11;;;;;;;32.58;17.45;;;;;;;20.55;51.20;96509.31;4996211;28;20030;-55
2022/03/27 10:32:39;;;;;;;28.48;16.83;;;;;;;20.32;48.12;96505.50;4996524;28;20088;-61
2022/03/27 10:35:14;;;;;;;26.85;16.77;;;;;;;20.40;51.96;96506.75;5013538;28;20397;-59
2022/03/27 10:37:59;;;;;;;29.23;16.73;;;;;;;20.25;49.29;96505.03;5013546;28;20508;-56
2022/03/27 10:40:43;;;;;;;26.02;16.00;;;;;;;20.34;51.87;96503.31;5013676;28;20036;-58
2022/03/27 10:43:24;;;;;;;27.67;17.00;;;;;;;20.01;50.52;96501.53;5000522;28;20100;-60
2022/03/27 10:46:29;;;;;;;25.58;15.90;;;;;;;20.00;51.26;96499.94;4998265;28;20057;-57
2022/03/27 10:49:11;;;;;;;25.33;15.82;;;;;;;19.77;51.25;96504.28;5004064;28;20049;-58
2022/03/27 10:51:39;;;;;;;28.88;16.75;;;;;;;19.57;51.68;96500.66;4993851;28;20053;-57
2022/03/27 10:54:11;;;;;;;27.65;16.00;;;;;;;19.67;54.52;96492.41;4996431;28;20081;-54
2022/03/27 10:56:51;;;;;;;23.13;14.70;;;;;;;20.02;50.13;96497.72;5013381;28;20460;-54
2022/03/27 10:59:19;;;;;;;24.95;15.93;;;;;;;19.91;50.44;96495.13;5013206;28;20109;-59
2022/03/27 11:01:56;;;;;;;24.45;15.98;;;;;;;19.69;50.58;96490.19;5013338;28;20038;-55
2022/03/27 11:04:38;;;;;;;25.35;15.25;;;;;;;20.17;48.76;96489.38;4999953;28;20511;-58
2022/03/27 11:07:16;;;;;;;;;;;;;;;20.35;46.45;96493.22;5013672;28;20038;-56
2022/03/27 11:09:45;;;;;;;24.02;14.95;;;;;;;20.43;46.70;96484.44;4995610;28;20355;-59
2022/03/27 11:12:23;;;;;;;26.00;16.15;;;;;;;20.61;48.21;96485.53;4992819;28;20041;-61
2022/03/27 11:15:02;;;;;;;22.83;15.70;;;;;;;20.48;47.62;96487.06;5012330;28;20022;-54
2022/03/27 11:17:40;;;;;;;23.92;14.95;;;;;;;20.73;47.13;96484.00;5003139;28;20018;-55
2022/03/27 11:20:25;;;;;;;27.30;16.33;;;;;;;20.66;45.60;96480.84;5012420;28;20033;-57
2022/03/27 11:22:59;;;;;;;26.58;16.65;;;;;;;20.27;49.21;96479.16;4994228;28;20033;-57
2022/03/27 11:25:34;;;;;;;23.40;15.50;;;;;;;20.59;49.27;96482.31;4993971;28;20366;-60
2022/03/27 11:28:45;;;;;;;24.42;15.25;;;;;;;20.97;50.32;96477.66;4994629;28;20112;-57
2022/03/27 11:31:10;;;;;;;26.02;15.15;;;;;;;21.03;45.53;96481.88;4997890;28;20085;-59
2022/03/27 11:33:37;;;;;;;25.05;16.15;;;;;;;21.04;44.38;96486.22;5011975;28;20524;-56
2022/03/27 11:36:14;;;;;;;25.15;15.82;;;;;;;21.14;44.60;96486.06;5004575;28;20069;-60